This is the latest recevied weather packets stored in our database for station/object KG7MRB. If no packets are shown the sender has not sent any weather packets the latest 10 day(s).
| Time | Temp. | Humidity | Pressure | Rain* | Wind** | Luminosity | Snow |
|---|---|---|---|---|---|---|---|
| 1777699457 | 15.56° C | 73% | 1034.2 hPa | 0 mm | - | 0 W/m² | - |
| 1777699154 | 15.56° C | 80% | 1034.2 hPa | 0 mm | - | 0 W/m² | - |
| 1777698853 | 14.44° C | 82% | 1034.2 hPa | 0 mm | - | 0 W/m² | - |
| 1777698549 | 13.89° C | 85% | 1034.2 hPa | 0 mm | - | 0 W/m² | - |
| 1777698245 | 13.89° C | 84% | 1034.2 hPa | 0 mm | - | 0 W/m² | - |
| 1777697943 | 14.44° C | 83% | 1034 hPa | 0 mm | - | 0 W/m² | - |
| 1777697639 | 14.44° C | 83% | 1034 hPa | 0 mm | - | 0 W/m² | - |
| 1777697336 | 14.44° C | 83% | 1033.4 hPa | 0 mm | - | 0 W/m² | - |
| 1777697031 | 14.44° C | 83% | 1033.8 hPa | 0 mm | - | 0 W/m² | - |
| 1777696724 | 14.44° C | 82% | 1033.5 hPa | 0 mm | - | 0 W/m² | - |
| 1777696421 | 14.44° C | 82% | 1033.9 hPa | 0 mm | - | 0 W/m² | - |
| 1777696120 | 15° C | 81% | 1033.5 hPa | 0 mm | - | 0 W/m² | - |
| 1777695818 | 15° C | 79% | 1033.5 hPa | 0 mm | - | 0 W/m² | - |
| 1777695515 | 15° C | 79% | 1033.8 hPa | 0 mm | - | 0 W/m² | - |
| 1777695212 | 15.56° C | 78% | 1033.7 hPa | 0 mm | - | 0 W/m² | - |
| 1777694910 | 15.56° C | 77% | 1033.3 hPa | 0 mm | - | 0 W/m² | - |
| 1777694607 | 16.11° C | 77% | 1033.3 hPa | 0 mm | - | 0 W/m² | - |
| 1777694303 | 16.67° C | 74% | 1033.2 hPa | 0 mm | - | 0 W/m² | - |
| 1777694000 | 16.67° C | 74% | 1033.3 hPa | 0 mm | - | 0 W/m² | - |
| 1777693697 | 16.67° C | 72% | 1033.2 hPa | 0 mm | - | 0 W/m² | - |
| 1777693395 | 17.22° C | 71% | 1033.1 hPa | 0 mm | - | 0 W/m² | - |
| 1777693093 | 17.22° C | 70% | 1033.1 hPa | 0 mm | - | 1 W/m² | - |
| 1777692791 | 17.78° C | 68% | 1033 hPa | 0 mm | - | 1 W/m² | - |
| 1777692487 | 17.78° C | 68% | 1032.8 hPa | 0 mm | - | 2 W/m² | - |
| 1777692183 | 18.33° C | 66% | 1033 hPa | 0 mm | - | 3 W/m² | - |
* Rain latest hour (hover to see other rain measurements)
** Current wind speed in m/s (hover to see current wind gust speed)